createdAt,value
2023-07-28T00:01:43.753Z,79.83
2023-07-28T00:04:10.146Z,77.47
2023-07-28T00:06:36.577Z,74.99
2023-07-28T00:09:02.981Z,71.46
2023-07-28T00:11:29.394Z,69.36
2023-07-28T00:13:55.734Z,68.42
2023-07-28T00:16:22.143Z,67.21
2023-07-28T00:18:48.567Z,67.12
2023-07-28T00:21:14.887Z,65.88
2023-07-28T00:23:41.264Z,64.92
2023-07-28T00:26:07.612Z,64.94
2023-07-28T00:28:33.951Z,65.01
2023-07-28T00:31:00.357Z,64.35
2023-07-28T00:33:26.791Z,63.92
2023-07-28T00:35:53.129Z,64.48
2023-07-28T00:38:19.514Z,64.19
2023-07-28T00:40:45.901Z,65.59
2023-07-28T00:43:12.231Z,66.59
2023-07-28T00:45:38.660Z,66.33
2023-07-28T00:48:05.010Z,65.76
2023-07-28T00:50:31.398Z,65.06
2023-07-28T00:52:57.765Z,65.29
2023-07-28T00:55:24.104Z,65.64
2023-07-28T00:57:50.478Z,65.98
2023-07-28T01:00:16.881Z,66.62
2023-07-28T01:02:43.301Z,66.24
2023-07-28T01:05:09.832Z,66.91
2023-07-28T01:07:36.238Z,66.85
2023-07-28T01:10:02.586Z,66.04
2023-07-28T01:12:28.937Z,66.43
2023-07-28T01:14:55.277Z,66.24
2023-07-28T01:17:21.655Z,65.79
2023-07-28T01:19:48.026Z,66.27
2023-07-28T01:22:14.375Z,66.14
2023-07-28T01:24:40.713Z,66.00
2023-07-28T01:27:07.042Z,65.74
2023-07-28T01:29:33.419Z,66.19
2023-07-28T01:31:59.801Z,65.71
2023-07-28T01:34:26.187Z,66.46
2023-07-28T01:36:52.580Z,66.05
2023-07-28T01:39:18.972Z,66.24
2023-07-28T01:41:45.361Z,65.92
2023-07-28T01:44:11.745Z,66.58
2023-07-28T01:46:38.076Z,66.15
2023-07-28T01:49:04.439Z,66.35
2023-07-28T01:51:30.841Z,66.26
2023-07-28T01:53:57.218Z,66.85
2023-07-28T01:56:23.554Z,66.36
2023-07-28T01:58:49.969Z,67.01
2023-07-28T02:01:16.411Z,67.24
2023-07-28T02:03:42.796Z,67.54
2023-07-28T02:06:09.134Z,67.03
2023-07-28T02:08:35.501Z,67.45
2023-07-28T02:11:01.822Z,67.50
2023-07-28T02:13:28.186Z,68.53
2023-07-28T02:15:54.514Z,68.41
2023-07-28T02:18:20.895Z,67.93
2023-07-28T02:20:47.229Z,68.16
2023-07-28T02:23:13.551Z,69.13
2023-07-28T02:25:41.239Z,70.09
2023-07-28T02:28:07.705Z,70.07
2023-07-28T02:30:34.059Z,70.09
2023-07-28T02:33:00.479Z,70.48
2023-07-28T02:35:26.888Z,70.50
2023-07-28T02:37:53.348Z,69.92
2023-07-28T02:40:19.752Z,70.28
2023-07-28T02:42:46.154Z,71.21
2023-07-28T02:45:12.553Z,72.16
2023-07-28T02:47:39.000Z,71.86
2023-07-28T02:50:05.423Z,71.57
2023-07-28T02:52:31.793Z,72.22
2023-07-28T02:54:58.185Z,71.50
2023-07-28T02:57:24.572Z,71.02
2023-07-28T02:59:50.905Z,72.06
2023-07-28T03:02:17.286Z,72.64
2023-07-28T03:04:43.795Z,71.93
2023-07-28T03:07:10.129Z,71.56
2023-07-28T03:09:36.466Z,71.86
2023-07-28T03:12:02.795Z,71.71
2023-07-28T03:14:29.177Z,71.26
2023-07-28T03:16:55.565Z,71.93
2023-07-28T03:19:21.903Z,71.71
2023-07-28T03:21:48.276Z,72.06
2023-07-28T03:24:14.613Z,72.26
2023-07-28T03:26:40.933Z,73.26
2023-07-28T03:29:07.414Z,72.94
2023-07-28T03:31:33.834Z,73.70
2023-07-28T03:34:00.239Z,73.05
2023-07-28T03:36:26.630Z,74.05
2023-07-28T03:38:52.973Z,74.21
2023-07-28T03:41:19.277Z,74.52
2023-07-28T03:43:45.607Z,74.06
2023-07-28T03:46:12.033Z,74.53
2023-07-28T03:48:38.462Z,73.96
2023-07-28T03:51:04.859Z,74.69
2023-07-28T03:53:31.249Z,75.12
2023-07-28T03:55:57.634Z,75.63
2023-07-28T03:58:23.977Z,75.47
2023-07-28T04:00:50.357Z,75.25
2023-07-28T04:03:16.709Z,74.80
2023-07-28T04:05:43.034Z,75.30
2023-07-28T04:08:09.363Z,75.07
2023-07-28T04:10:35.759Z,75.46
2023-07-28T04:13:02.101Z,76.08
2023-07-28T04:15:28.437Z,76.81
2023-07-28T04:17:54.857Z,77.01
2023-07-28T04:20:21.264Z,77.84
2023-07-28T04:22:47.651Z,77.38
2023-07-28T04:25:14.009Z,77.63
2023-07-28T04:27:40.382Z,77.77
2023-07-28T04:30:06.717Z,77.61
2023-07-28T04:32:33.067Z,77.78
2023-07-28T04:34:59.480Z,77.64
2023-07-28T04:37:25.804Z,78.17
2023-07-28T04:39:52.128Z,78.81
2023-07-28T04:42:18.505Z,80.34
2023-07-28T04:44:44.842Z,78.94
2023-07-28T04:47:11.309Z,78.60
2023-07-28T04:49:37.686Z,78.99
2023-07-28T04:52:04.077Z,79.36
2023-07-28T04:54:30.644Z,79.13
2023-07-28T04:56:57.065Z,78.77
2023-07-28T04:59:23.414Z,79.62
2023-07-28T05:01:49.741Z,79.60
2023-07-28T05:04:16.195Z,79.73
2023-07-28T05:06:42.603Z,79.19
2023-07-28T05:09:08.996Z,79.78
2023-07-28T05:11:35.567Z,80.10
2023-07-28T05:14:02.116Z,79.93
2023-07-28T05:16:28.545Z,80.20
2023-07-28T05:18:54.949Z,80.17
2023-07-28T05:21:21.270Z,80.65
2023-07-28T05:23:47.588Z,80.18
2023-07-28T05:26:13.915Z,80.73
2023-07-28T05:28:40.246Z,79.76
2023-07-28T05:31:06.645Z,80.02
2023-07-28T05:33:33.066Z,79.56
2023-07-28T05:35:59.406Z,79.51
2023-07-28T05:38:25.789Z,79.97
2023-07-28T05:40:52.130Z,79.81
2023-07-28T05:43:18.451Z,79.85
2023-07-28T05:45:44.824Z,79.59
2023-07-28T05:48:11.218Z,79.13
2023-07-28T05:50:37.559Z,78.26
2023-07-28T05:53:03.889Z,78.31
2023-07-28T05:55:31.410Z,79.40
2023-07-28T05:57:57.976Z,78.63
2023-07-28T06:00:24.351Z,79.27
2023-07-28T06:02:50.771Z,79.61
2023-07-28T06:05:17.221Z,80.30
2023-07-28T06:07:43.605Z,78.78
2023-07-28T06:10:09.934Z,80.73
2023-07-28T06:12:36.296Z,79.09
2023-07-28T06:15:02.608Z,78.44
2023-07-28T06:17:28.999Z,77.53
2023-07-28T06:19:55.393Z,79.30
2023-07-28T06:22:21.757Z,79.17
2023-07-28T06:24:48.093Z,78.28
2023-07-28T06:27:14.481Z,77.65
2023-07-28T06:29:40.890Z,78.43
2023-07-28T06:32:07.261Z,78.92
2023-07-28T06:34:33.641Z,78.61
2023-07-28T06:37:00.068Z,79.09
2023-07-28T06:39:26.516Z,79.33
2023-07-28T06:41:52.911Z,78.63
2023-07-28T06:44:19.253Z,76.16
2023-07-28T06:46:46.079Z,76.78
2023-07-28T06:49:12.517Z,78.16
2023-07-28T06:51:38.893Z,77.91
2023-07-28T06:54:05.257Z,77.88
2023-07-28T06:56:31.612Z,78.34
2023-07-28T06:59:12.458Z,78.16
2023-07-28T07:01:41.438Z,77.07
2023-07-28T07:04:07.783Z,76.56
2023-07-28T07:06:34.131Z,77.84
2023-07-28T07:09:00.454Z,76.65
2023-07-28T07:11:26.848Z,75.48
2023-07-28T07:13:53.190Z,76.93
2023-07-28T07:16:24.224Z,76.92
2023-07-28T07:18:51.257Z,76.65
2023-07-28T07:21:17.608Z,77.64
2023-07-28T07:23:43.977Z,78.99
2023-07-28T07:26:10.449Z,77.82
2023-07-28T07:28:36.792Z,77.80
2023-07-28T07:31:03.176Z,76.73
2023-07-28T07:33:29.523Z,77.98
2023-07-28T07:35:55.887Z,78.27
2023-07-28T07:38:22.255Z,78.21
2023-07-28T07:40:48.636Z,78.66
2023-07-28T07:43:15.032Z,79.29
2023-07-28T07:45:41.386Z,81.47
2023-07-28T07:48:07.827Z,81.17
2023-07-28T07:50:34.194Z,80.81
2023-07-28T07:53:00.604Z,81.91
2023-07-28T07:55:26.965Z,80.89
2023-07-28T07:57:53.311Z,82.96
2023-07-28T08:00:19.669Z,82.67
2023-07-28T08:02:46.892Z,84.22
2023-07-28T08:05:13.391Z,84.70
2023-07-28T08:07:39.782Z,84.18
2023-07-28T08:10:06.119Z,85.13
2023-07-28T08:12:32.483Z,86.23
2023-07-28T08:14:58.878Z,85.67
2023-07-28T08:17:25.263Z,85.76
2023-07-28T08:19:51.704Z,85.49
2023-07-28T08:22:18.061Z,85.59
2023-07-28T08:24:44.383Z,86.43
2023-07-28T08:27:10.745Z,86.45
2023-07-28T08:29:37.111Z,86.68
2023-07-28T08:32:03.450Z,88.63
2023-07-28T08:34:29.777Z,87.65
2023-07-28T08:36:56.110Z,86.50
2023-07-28T08:39:22.432Z,85.69
2023-07-28T08:41:48.760Z,84.04
2023-07-28T08:44:15.094Z,84.03
2023-07-28T08:46:41.524Z,83.50
2023-07-28T08:49:07.903Z,82.50
2023-07-28T08:51:34.520Z,83.09
2023-07-28T08:54:01.065Z,80.33
2023-07-28T08:56:27.401Z,80.21
2023-07-28T08:58:53.734Z,79.71
2023-07-28T09:01:20.212Z,79.19
2023-07-28T09:03:46.622Z,80.46
2023-07-28T09:06:13.009Z,78.25
2023-07-28T09:08:39.344Z,76.90
2023-07-28T09:11:05.690Z,77.63
2023-07-28T09:13:32.037Z,77.71
2023-07-28T09:15:58.404Z,76.53
2023-07-28T09:18:24.731Z,73.29
2023-07-28T09:20:51.106Z,75.83
2023-07-28T09:23:17.455Z,74.17
2023-07-28T09:25:43.851Z,72.00
2023-07-28T09:28:10.286Z,70.89
2023-07-28T09:30:36.763Z,71.61
2023-07-28T09:33:03.128Z,69.55
2023-07-28T09:35:29.527Z,70.62
2023-07-28T09:37:55.860Z,70.32
2023-07-28T09:40:22.247Z,69.85
2023-07-28T09:42:48.575Z,69.51
2023-07-28T09:45:26.618Z,71.70
2023-07-28T09:48:01.294Z,71.91
2023-07-28T09:50:27.643Z,71.79
2023-07-28T09:52:53.977Z,70.71
2023-07-28T09:55:20.314Z,71.87
2023-07-28T09:57:46.688Z,70.29
2023-07-28T10:00:13.065Z,73.81
2023-07-28T10:02:39.566Z,74.39
2023-07-28T10:05:06.002Z,73.10
2023-07-28T10:07:32.330Z,76.08
2023-07-28T10:09:58.706Z,75.86
2023-07-28T10:12:25.058Z,71.16
2023-07-28T10:14:51.433Z,71.30
2023-07-28T10:17:17.818Z,70.02
2023-07-28T10:19:44.332Z,68.76
2023-07-28T10:22:10.746Z,71.24
2023-07-28T10:24:37.102Z,69.29
2023-07-28T10:27:03.486Z,67.17
2023-07-28T10:29:29.819Z,66.97
2023-07-28T10:31:56.154Z,66.38
2023-07-28T10:34:22.546Z,69.75
2023-07-28T10:36:48.924Z,67.59
2023-07-28T10:39:15.252Z,67.40
2023-07-28T10:41:41.635Z,65.51
2023-07-28T10:44:08.038Z,66.12
2023-07-28T10:46:34.631Z,66.51
2023-07-28T10:49:01.201Z,63.55
2023-07-28T10:51:27.550Z,62.46
2023-07-28T10:53:53.890Z,61.35
2023-07-28T10:56:20.250Z,63.88
2023-07-28T10:58:46.573Z,66.37
2023-07-28T11:01:13.009Z,62.46
2023-07-28T11:03:39.394Z,62.26
2023-07-28T11:06:05.801Z,61.81
2023-07-28T11:08:32.135Z,63.59
2023-07-28T11:10:58.461Z,62.03
2023-07-28T11:13:39.745Z,61.83
2023-07-28T11:16:07.752Z,60.90
2023-07-28T11:18:34.062Z,60.04
2023-07-28T11:21:00.438Z,61.27
2023-07-28T11:23:26.809Z,59.43
2023-07-28T11:25:53.145Z,59.98
2023-07-28T11:28:19.480Z,60.96
2023-07-28T11:30:45.948Z,61.36
2023-07-28T11:33:12.270Z,62.38
2023-07-28T11:35:38.589Z,63.38
2023-07-28T11:38:04.922Z,62.82
2023-07-28T11:40:32.463Z,60.07
2023-07-28T11:42:58.860Z,60.43
2023-07-28T11:45:25.232Z,59.00
2023-07-28T11:47:51.583Z,57.25
2023-07-28T11:50:18.006Z,55.25
2023-07-28T11:52:44.397Z,57.29
2023-07-28T11:55:10.796Z,55.08
2023-07-28T11:57:37.142Z,55.42
2023-07-28T12:00:03.527Z,55.89
2023-07-28T12:02:30.013Z,59.29
2023-07-28T12:07:25.767Z,53.50
2023-07-28T12:10:02.974Z,50.08
2023-07-28T12:12:29.916Z,51.47
2023-07-28T12:17:29.188Z,53.66
2023-07-28T12:20:12.431Z,44.12
2023-07-28T12:22:39.215Z,45.98
2023-07-28T12:25:05.559Z,44.82
2023-07-28T12:27:33.659Z,45.85
2023-07-28T12:30:02.993Z,44.56
2023-07-28T12:34:59.562Z,43.67
2023-07-28T12:40:04.552Z,46.18
2023-07-28T12:43:05.300Z,46.96
2023-07-28T12:47:47.355Z,43.74
2023-07-28T12:55:15.537Z,47.17
2023-07-28T12:57:42.220Z,44.76
2023-07-28T13:02:39.467Z,46.58
2023-07-28T13:05:06.085Z,49.22
2023-07-28T13:10:01.717Z,51.34
2023-07-28T13:14:57.357Z,54.97
2023-07-28T13:17:23.892Z,53.53
2023-07-28T13:19:51.666Z,50.46
2023-07-28T13:22:17.987Z,50.36
2023-07-28T13:24:44.323Z,52.50
2023-07-28T13:27:10.649Z,54.67
2023-07-28T13:29:37.004Z,56.19
2023-07-28T13:32:03.383Z,54.64
2023-07-28T13:34:29.893Z,55.87
2023-07-28T13:36:56.291Z,53.57
2023-07-28T13:39:22.637Z,50.01
2023-07-28T13:41:48.961Z,49.23
2023-07-28T13:44:15.552Z,49.60
2023-07-28T13:46:41.974Z,50.43
2023-07-28T13:49:08.542Z,49.26
2023-07-28T13:52:17.666Z,49.86
2023-07-28T13:54:24.327Z,47.09
2023-07-28T13:59:20.122Z,48.33
2023-07-28T14:01:46.472Z,43.22
2023-07-28T14:04:12.941Z,42.07
2023-07-28T14:06:39.274Z,40.92
2023-07-28T14:09:05.667Z,39.75
2023-07-28T14:11:32.008Z,41.87
2023-07-28T14:13:58.413Z,39.99
2023-07-28T14:16:24.837Z,39.52
2023-07-28T14:18:51.221Z,43.32
2023-07-28T14:21:17.622Z,38.85
2023-07-28T14:23:43.950Z,37.22
2023-07-28T14:26:10.332Z,36.95
2023-07-28T14:28:36.677Z,38.19
2023-07-28T14:31:03.074Z,37.71
2023-07-28T14:33:29.415Z,36.60
2023-07-28T14:35:55.757Z,37.60
2023-07-28T14:38:22.077Z,36.61
2023-07-28T14:40:48.409Z,38.27
2023-07-28T14:43:14.740Z,39.04
2023-07-28T14:45:41.073Z,40.33
2023-07-28T14:48:07.466Z,40.57
2023-07-28T14:50:33.826Z,43.27
2023-07-28T14:53:00.263Z,42.12
2023-07-28T14:55:26.671Z,41.29
2023-07-28T14:57:53.062Z,43.56
2023-07-28T15:00:19.585Z,41.98
2023-07-28T15:02:46.077Z,42.56
2023-07-28T15:05:12.508Z,42.87
2023-07-28T15:07:38.919Z,43.72
2023-07-28T15:10:05.311Z,43.45
2023-07-28T15:12:31.714Z,43.46
2023-07-28T15:14:58.051Z,44.51
2023-07-28T15:17:24.437Z,44.44
2023-07-28T15:19:50.861Z,45.05
2023-07-28T15:22:17.274Z,44.98
2023-07-28T15:24:43.666Z,43.96
2023-07-28T15:27:10.050Z,41.38
2023-07-28T15:29:36.432Z,41.24
2023-07-28T15:32:02.767Z,40.83
2023-07-28T15:34:29.150Z,39.55
2023-07-28T15:36:55.529Z,42.47
2023-07-28T15:39:21.867Z,41.57
2023-07-28T15:41:48.174Z,40.19
2023-07-28T15:44:14.553Z,41.59
2023-07-28T15:46:40.995Z,37.95
2023-07-28T15:49:07.443Z,40.83
2023-07-28T15:51:34.108Z,38.57
2023-07-28T15:54:00.820Z,39.53
2023-07-28T15:56:27.213Z,37.75
2023-07-28T15:58:53.554Z,37.56
2023-07-28T16:01:19.972Z,37.89
2023-07-28T16:03:46.389Z,35.61
2023-07-28T16:06:12.775Z,37.74
2023-07-28T16:08:39.102Z,38.77
2023-07-28T16:11:05.453Z,38.30
2023-07-28T16:13:31.786Z,38.93
2023-07-28T16:15:58.255Z,40.81
2023-07-28T16:18:24.616Z,40.92
2023-07-28T16:20:50.954Z,38.43
2023-07-28T16:23:17.326Z,38.55
2023-07-28T16:25:43.735Z,36.64
2023-07-28T16:28:10.106Z,37.37
2023-07-28T16:30:36.602Z,35.86
2023-07-28T16:33:02.940Z,34.98
2023-07-28T16:35:29.267Z,33.31
2023-07-28T16:37:55.660Z,33.58
2023-07-28T16:40:22.050Z,32.64
2023-07-28T16:42:48.457Z,32.39
2023-07-28T16:45:14.943Z,30.31
2023-07-28T16:47:41.374Z,32.38
2023-07-28T16:50:07.730Z,30.67
2023-07-28T16:52:34.100Z,31.18
2023-07-28T16:55:00.471Z,31.33
2023-07-28T16:57:26.882Z,29.76
2023-07-28T16:59:53.283Z,31.33
2023-07-28T17:02:19.649Z,31.33
2023-07-28T17:04:46.017Z,30.65
2023-07-28T17:07:12.330Z,31.25
2023-07-28T17:09:38.648Z,31.91
2023-07-28T17:12:05.021Z,32.66
2023-07-28T17:14:31.351Z,32.67
2023-07-28T17:16:57.717Z,35.30
2023-07-28T17:19:24.092Z,34.41
2023-07-28T17:21:50.438Z,35.58
2023-07-28T17:24:16.800Z,35.55
2023-07-28T17:26:43.159Z,35.87
2023-07-28T17:29:09.479Z,36.73
2023-07-28T17:31:36.117Z,35.60
2023-07-28T17:34:02.720Z,34.93
2023-07-28T17:36:29.050Z,36.03
2023-07-28T17:38:55.590Z,36.46
2023-07-28T17:41:21.945Z,37.67
2023-07-28T17:43:48.317Z,37.88
2023-07-28T17:46:14.664Z,37.75
2023-07-28T17:48:41.086Z,36.91
2023-07-28T17:51:07.485Z,37.94
2023-07-28T17:53:33.835Z,36.29
2023-07-28T17:56:00.238Z,36.94
2023-07-28T17:58:26.589Z,35.56
2023-07-28T18:00:52.937Z,34.37
2023-07-28T18:03:19.416Z,35.51
2023-07-28T18:05:45.856Z,35.87
2023-07-28T18:08:12.231Z,37.26
2023-07-28T18:10:38.562Z,37.58
2023-07-28T18:13:04.949Z,37.63
2023-07-28T18:15:32.042Z,37.86
2023-07-28T18:17:58.473Z,38.90
2023-07-28T18:20:24.830Z,39.89
2023-07-28T18:22:51.212Z,41.03
2023-07-28T18:25:17.535Z,40.45
2023-07-28T18:27:43.905Z,41.57
2023-07-28T18:30:10.314Z,42.77
2023-07-28T18:32:36.701Z,42.28
2023-07-28T18:35:03.075Z,42.49
2023-07-28T18:37:29.464Z,42.50
2023-07-28T18:39:55.849Z,43.02
2023-07-28T18:42:22.247Z,44.65
2023-07-28T18:44:48.574Z,44.11
2023-07-28T18:47:14.964Z,44.25
2023-07-28T18:49:41.333Z,45.27
2023-07-28T18:52:07.734Z,45.44
2023-07-28T18:54:34.233Z,44.91
2023-07-28T18:57:00.887Z,46.08
2023-07-28T18:59:27.398Z,45.47
2023-07-28T19:01:53.988Z,46.92
2023-07-28T19:04:20.356Z,47.10
2023-07-28T19:06:46.682Z,47.93
2023-07-28T19:09:13.055Z,49.04
2023-07-28T19:11:39.377Z,49.78
2023-07-28T19:14:05.765Z,49.62
2023-07-28T19:16:32.116Z,50.44
2023-07-28T19:18:58.463Z,49.23
2023-07-28T19:21:25.029Z,51.70
2023-07-28T19:23:51.371Z,51.46
2023-07-28T19:26:17.779Z,52.47
2023-07-28T19:28:44.273Z,49.72
2023-07-28T19:31:10.827Z,51.66
2023-07-28T19:33:38.292Z,50.70
2023-07-28T19:36:06.921Z,54.14
2023-07-28T19:38:33.293Z,53.00
2023-07-28T19:40:59.633Z,53.27
2023-07-28T19:43:25.949Z,54.36
2023-07-28T19:45:52.355Z,52.32
2023-07-28T19:48:18.783Z,54.40
2023-07-28T19:50:47.299Z,59.27
2023-07-28T19:53:14.138Z,55.25
2023-07-28T19:55:41.135Z,55.53
2023-07-28T19:58:09.418Z,55.61
2023-07-28T20:00:35.822Z,56.16
2023-07-28T20:03:02.288Z,54.70
2023-07-28T20:05:28.730Z,53.03
2023-07-28T20:07:55.118Z,53.45
2023-07-28T20:10:21.432Z,53.30
2023-07-28T20:12:47.741Z,52.84
2023-07-28T20:15:14.070Z,52.59
2023-07-28T20:17:40.430Z,54.46
2023-07-28T20:20:06.937Z,54.39
2023-07-28T20:22:33.319Z,54.20
2023-07-28T20:24:59.708Z,54.32
2023-07-28T20:27:26.103Z,53.34
2023-07-28T20:29:52.439Z,53.51
2023-07-28T20:32:18.764Z,52.52
2023-07-28T20:34:45.105Z,52.55
2023-07-28T20:37:11.517Z,53.17
2023-07-28T20:39:37.845Z,54.32
2023-07-28T20:42:04.175Z,54.85
2023-07-28T20:44:30.493Z,55.74
2023-07-28T20:46:56.964Z,58.03
2023-07-28T20:49:23.404Z,62.32
2023-07-28T20:51:49.737Z,63.36
2023-07-28T20:54:16.063Z,63.51
2023-07-28T20:56:42.396Z,64.69
2023-07-28T20:59:08.743Z,65.50
2023-07-28T21:01:35.118Z,65.75
2023-07-28T21:04:01.459Z,67.85
2023-07-28T21:06:27.843Z,68.39
2023-07-28T21:08:54.175Z,69.66
2023-07-28T21:11:20.558Z,70.63
2023-07-28T21:13:46.903Z,68.75
2023-07-28T21:16:13.493Z,69.06
2023-07-28T21:18:39.960Z,69.65
2023-07-28T21:21:06.343Z,68.56
2023-07-28T21:23:34.918Z,70.26
2023-07-28T21:26:01.740Z,69.52
2023-07-28T21:28:28.159Z,69.96
2023-07-28T21:30:54.630Z,70.59
2023-07-28T21:33:21.081Z,70.37
2023-07-28T21:35:47.426Z,72.28
2023-07-28T21:38:13.848Z,73.18
2023-07-28T21:40:40.235Z,73.86
2023-07-28T21:43:06.665Z,75.77
2023-07-28T21:45:33.048Z,74.09
2023-07-28T21:47:59.479Z,73.92
2023-07-28T21:50:25.886Z,74.28
2023-07-28T21:52:52.268Z,75.00
2023-07-28T21:55:18.594Z,74.47
2023-07-28T21:57:44.975Z,77.33
2023-07-28T22:00:11.363Z,77.20
2023-07-28T22:02:37.741Z,76.56
2023-07-28T22:05:04.118Z,79.33
2023-07-28T22:07:30.484Z,80.48
2023-07-28T22:09:56.885Z,79.52
2023-07-28T22:12:23.292Z,77.48
2023-07-28T22:14:49.676Z,78.62
2023-07-28T22:17:16.004Z,81.54
2023-07-28T22:19:42.374Z,79.12
2023-07-28T22:22:08.761Z,80.83
2023-07-28T22:24:35.089Z,81.46
2023-07-28T22:27:01.464Z,79.89
2023-07-28T22:29:27.864Z,82.14
2023-07-28T22:31:54.236Z,80.77
2023-07-28T22:34:20.678Z,80.74
2023-07-28T22:36:47.068Z,81.15
2023-07-28T22:39:13.496Z,78.53
2023-07-28T22:41:39.894Z,78.52
2023-07-28T22:44:06.288Z,78.51
2023-07-28T22:46:32.685Z,77.76
2023-07-28T22:48:59.073Z,77.72
2023-07-28T22:51:25.456Z,76.74
2023-07-28T22:53:51.806Z,76.15
2023-07-28T22:56:18.185Z,81.26
2023-07-28T22:58:44.517Z,81.69
2023-07-28T23:01:10.898Z,82.37
2023-07-28T23:03:37.308Z,83.09
2023-07-28T23:06:03.737Z,82.94
2023-07-28T23:08:30.136Z,77.99
2023-07-28T23:10:56.473Z,79.83
2023-07-28T23:13:22.804Z,82.78
2023-07-28T23:15:49.127Z,83.50
2023-07-28T23:18:15.504Z,82.34
2023-07-28T23:20:41.831Z,80.89
2023-07-28T23:23:08.209Z,81.48
2023-07-28T23:25:34.545Z,80.31
2023-07-28T23:28:00.915Z,80.54
2023-07-28T23:30:27.301Z,80.30
2023-07-28T23:32:53.730Z,81.66
2023-07-28T23:35:20.111Z,81.42
2023-07-28T23:37:46.444Z,79.40
2023-07-28T23:40:12.814Z,74.35
2023-07-28T23:42:39.184Z,75.62
2023-07-28T23:45:05.533Z,100.00
2023-07-28T23:47:31.885Z,100.00
2023-07-28T23:49:58.212Z,100.00
2023-07-28T23:52:24.600Z,100.00
2023-07-28T23:54:50.976Z,100.00
2023-07-28T23:57:17.361Z,100.00
2023-07-28T23:59:43.769Z,100.00
